createdAt,value
2018-05-15T00:01:35.343Z,51.41
2018-05-15T00:04:06.366Z,51.35
2018-05-15T00:06:37.360Z,51.03
2018-05-15T00:09:08.347Z,51.35
2018-05-15T00:11:39.345Z,51.05
2018-05-15T00:14:10.358Z,51.30
2018-05-15T00:16:41.335Z,51.48
2018-05-15T00:19:12.396Z,51.35
2018-05-15T00:21:43.390Z,51.11
2018-05-15T00:24:14.403Z,51.07
2018-05-15T00:26:45.436Z,51.15
2018-05-15T00:29:16.397Z,51.27
2018-05-15T00:31:47.427Z,51.19
2018-05-15T00:34:18.457Z,51.62
2018-05-15T00:36:49.664Z,51.45
2018-05-15T00:39:20.875Z,51.70
2018-05-15T00:41:52.037Z,51.79
2018-05-15T00:44:23.091Z,52.01
2018-05-15T00:46:54.506Z,51.97
2018-05-15T00:49:25.736Z,52.22
2018-05-15T00:51:57.084Z,52.25
2018-05-15T00:54:28.348Z,52.27
2018-05-15T00:56:59.496Z,52.60
2018-05-15T00:59:30.689Z,52.71
2018-05-15T01:02:01.837Z,52.86
2018-05-15T01:04:33.057Z,52.88
2018-05-15T01:07:04.100Z,53.32
2018-05-15T01:09:35.183Z,52.94
2018-05-15T01:12:06.266Z,53.06
2018-05-15T01:14:37.373Z,53.09
2018-05-15T01:17:08.346Z,52.98
2018-05-15T01:19:39.332Z,52.64
2018-05-15T01:22:10.326Z,52.30
2018-05-15T01:24:41.314Z,52.16
2018-05-15T01:27:12.373Z,51.94
2018-05-15T01:29:43.327Z,51.52
2018-05-15T01:32:14.331Z,51.48
2018-05-15T01:34:45.311Z,51.37
2018-05-15T01:37:16.330Z,51.59
2018-05-15T01:39:47.285Z,51.53
2018-05-15T01:42:18.311Z,51.92
2018-05-15T01:44:49.329Z,52.31
2018-05-15T01:47:20.400Z,52.65
2018-05-15T01:49:51.368Z,52.71
2018-05-15T01:52:22.407Z,52.69
2018-05-15T01:54:53.413Z,52.90
2018-05-15T01:57:24.410Z,52.94
2018-05-15T01:59:55.520Z,52.82
2018-05-15T02:02:26.507Z,52.77
2018-05-15T02:04:57.494Z,52.66
2018-05-15T02:07:28.501Z,52.96
2018-05-15T02:09:59.509Z,52.75
2018-05-15T02:12:30.550Z,52.64
2018-05-15T02:15:01.522Z,52.57
2018-05-15T02:17:32.567Z,52.38
2018-05-15T02:20:03.542Z,52.40
2018-05-15T02:22:34.582Z,52.56
2018-05-15T02:25:05.589Z,53.14
2018-05-15T02:27:36.686Z,53.62
2018-05-15T02:30:07.666Z,54.18
2018-05-15T02:32:38.654Z,54.42
2018-05-15T02:35:09.704Z,54.55
2018-05-15T02:37:40.682Z,55.05
2018-05-15T02:40:11.688Z,54.98
2018-05-15T02:42:42.710Z,55.15
2018-05-15T02:45:13.763Z,55.21
2018-05-15T02:47:44.808Z,55.07
2018-05-15T02:50:15.806Z,54.99
2018-05-15T02:52:46.811Z,54.97
2018-05-15T02:55:17.824Z,55.02
2018-05-15T02:57:48.815Z,54.79
2018-05-15T03:00:19.802Z,54.34
2018-05-15T03:02:50.825Z,54.22
2018-05-15T03:05:21.847Z,54.08
2018-05-15T03:07:52.838Z,54.26
2018-05-15T03:10:23.851Z,54.22
2018-05-15T03:12:54.863Z,54.06
2018-05-15T03:15:25.887Z,53.87
2018-05-15T03:17:56.868Z,53.81
2018-05-15T03:20:27.869Z,53.80
2018-05-15T03:22:58.838Z,53.87
2018-05-15T03:25:29.878Z,53.87
2018-05-15T03:28:00.944Z,53.88
2018-05-15T03:30:31.918Z,53.81
2018-05-15T03:33:02.878Z,53.75
2018-05-15T03:35:33.914Z,53.97
2018-05-15T03:38:04.931Z,53.95
2018-05-15T03:40:35.952Z,54.05
2018-05-15T03:43:07.066Z,54.23
2018-05-15T03:45:38.082Z,54.06
2018-05-15T03:48:09.022Z,53.70
2018-05-15T03:50:39.995Z,53.50
2018-05-15T03:53:10.995Z,53.49
2018-05-15T03:55:42.004Z,53.16
2018-05-15T03:58:12.961Z,52.99
2018-05-15T04:00:56.321Z,52.77
2018-05-15T04:03:39.704Z,52.69
2018-05-15T04:06:23.026Z,52.60
2018-05-15T04:08:54.020Z,52.49
2018-05-15T04:11:25.038Z,52.33
2018-05-15T04:13:56.070Z,51.86
2018-05-15T04:16:27.137Z,51.17
2018-05-15T04:18:58.071Z,50.97
2018-05-15T04:21:29.096Z,50.70
2018-05-15T04:24:00.085Z,49.92
2018-05-15T04:26:31.115Z,49.79
2018-05-15T04:29:02.113Z,49.63
2018-05-15T04:31:33.180Z,49.38
2018-05-15T04:34:04.172Z,49.12
2018-05-15T04:36:35.160Z,48.66
2018-05-15T04:39:06.181Z,48.75
2018-05-15T04:41:37.225Z,48.58
2018-05-15T04:44:08.209Z,48.80
2018-05-15T04:46:39.194Z,49.50
2018-05-15T04:49:10.206Z,50.03
2018-05-15T04:51:41.180Z,49.90
2018-05-15T04:54:12.193Z,49.91
2018-05-15T04:56:43.170Z,49.63
2018-05-15T04:59:14.177Z,49.59
2018-05-15T05:01:45.194Z,50.15
2018-05-15T05:04:16.209Z,50.00
2018-05-15T05:06:47.215Z,49.76
2018-05-15T05:09:18.219Z,49.48
2018-05-15T05:11:49.283Z,49.03
2018-05-15T05:14:20.206Z,48.98
2018-05-15T05:16:51.220Z,48.95
2018-05-15T05:19:22.212Z,48.29
2018-05-15T05:21:53.256Z,48.44
2018-05-15T05:24:24.238Z,48.24
2018-05-15T05:26:55.280Z,47.99
2018-05-15T05:29:26.286Z,48.27
2018-05-15T05:31:57.308Z,48.13
2018-05-15T05:34:28.311Z,47.89
2018-05-15T05:36:59.288Z,48.02
2018-05-15T05:39:30.351Z,48.38
2018-05-15T05:42:01.352Z,48.36
2018-05-15T05:44:32.376Z,48.86
2018-05-15T05:47:03.430Z,48.29
2018-05-15T05:49:34.381Z,47.78
2018-05-15T05:52:05.479Z,47.66
2018-05-15T05:54:36.390Z,46.65
2018-05-15T05:57:07.444Z,45.98
2018-05-15T05:59:38.424Z,43.51
2018-05-15T06:02:09.460Z,37.07
2018-05-15T06:04:40.412Z,27.67
2018-05-15T06:07:12.492Z,20.95
2018-05-15T06:09:43.532Z,18.27
2018-05-15T06:12:14.576Z,15.11
2018-05-15T06:14:45.586Z,14.67
2018-05-15T06:17:16.595Z,13.39
2018-05-15T06:19:47.598Z,12.86
2018-05-15T06:22:18.640Z,12.25
2018-05-15T06:24:49.610Z,11.86
2018-05-15T06:27:20.646Z,10.88
2018-05-15T06:29:51.638Z,10.78
2018-05-15T06:32:22.710Z,10.70
2018-05-15T06:34:53.716Z,10.48
2018-05-15T06:37:24.782Z,9.44
2018-05-15T06:39:55.806Z,8.57
2018-05-15T06:42:26.791Z,8.36
2018-05-15T06:44:57.767Z,8.52
2018-05-15T06:47:28.798Z,8.31
2018-05-15T06:49:59.778Z,8.36
2018-05-15T06:52:30.805Z,7.59
2018-05-15T06:55:01.799Z,7.29
2018-05-15T06:57:32.809Z,6.79
2018-05-15T07:00:03.801Z,7.18
2018-05-15T07:02:34.821Z,6.76
2018-05-15T07:05:05.800Z,6.66
2018-05-15T07:07:36.823Z,5.85
2018-05-15T07:10:07.826Z,5.83
2018-05-15T07:12:38.853Z,5.31
2018-05-15T07:15:09.905Z,4.81
2018-05-15T07:17:40.934Z,5.12
2018-05-15T07:20:11.954Z,5.00
2018-05-15T07:22:43.071Z,4.80
2018-05-15T07:25:14.012Z,5.83
2018-05-15T07:27:45.040Z,6.88
2018-05-15T07:30:16.033Z,7.15
2018-05-15T07:32:47.109Z,7.11
2018-05-15T07:35:18.125Z,6.49
2018-05-15T07:37:49.126Z,7.24
2018-05-15T07:40:20.198Z,7.31
2018-05-15T07:42:51.146Z,6.88
2018-05-15T07:45:22.180Z,6.11
2018-05-15T07:47:53.153Z,5.44
2018-05-15T07:50:24.189Z,5.00
2018-05-15T07:52:55.206Z,4.58
2018-05-15T07:55:26.199Z,4.20
2018-05-15T07:57:57.168Z,4.80
2018-05-15T08:00:28.220Z,4.89
2018-05-15T08:02:59.208Z,4.60
2018-05-15T08:05:30.215Z,4.61
2018-05-15T08:08:01.194Z,5.49
2018-05-15T08:10:32.308Z,5.47
2018-05-15T08:13:03.239Z,4.45
2018-05-15T08:15:34.230Z,3.68
2018-05-15T08:18:05.197Z,3.13
2018-05-15T08:20:36.211Z,3.13
2018-05-15T08:23:07.228Z,2.79
2018-05-15T08:25:38.239Z,2.22
2018-05-15T08:28:09.263Z,3.02
2018-05-15T08:30:40.301Z,3.05
2018-05-15T08:33:11.250Z,3.31
2018-05-15T08:35:42.280Z,4.43
2018-05-15T08:38:13.261Z,4.80
2018-05-15T08:40:44.314Z,5.16
2018-05-15T08:43:15.321Z,6.99
2018-05-15T08:45:46.334Z,8.03
2018-05-15T08:48:17.312Z,9.07
2018-05-15T08:50:48.325Z,6.79
2018-05-15T08:53:19.325Z,8.12
2018-05-15T08:55:50.397Z,10.36
2018-05-15T08:58:21.362Z,10.57
2018-05-15T09:00:52.377Z,12.99
2018-05-15T09:03:23.363Z,15.72
2018-05-15T09:05:54.388Z,17.39
2018-05-15T09:08:25.396Z,15.72
2018-05-15T09:10:56.472Z,11.01
2018-05-15T09:13:27.484Z,9.88
2018-05-15T09:15:58.488Z,10.18
2018-05-15T09:18:29.469Z,9.16
2018-05-15T09:21:00.489Z,11.83
2018-05-15T09:23:31.568Z,12.72
2018-05-15T09:26:02.575Z,9.81
2018-05-15T09:28:33.632Z,8.33
2018-05-15T09:31:04.705Z,8.52
2018-05-15T09:33:35.709Z,7.28
2018-05-15T09:36:06.792Z,5.54
2018-05-15T09:38:37.837Z,4.26
2018-05-15T09:41:08.887Z,4.13
2018-05-15T09:43:54.808Z,3.55
2018-05-15T09:46:25.809Z,3.21
2018-05-15T09:48:56.824Z,2.58
2018-05-15T09:51:27.801Z,2.58
2018-05-15T09:53:58.808Z,2.25
2018-05-15T09:56:29.811Z,2.82
2018-05-15T09:59:00.880Z,2.60
2018-05-15T10:01:31.895Z,2.31
2018-05-15T10:04:02.961Z,1.89
2018-05-15T10:06:34.159Z,2.51
2018-05-15T10:09:05.199Z,2.61
2018-05-15T10:11:36.197Z,2.08
2018-05-15T10:14:07.352Z,1.97
2018-05-15T10:16:38.332Z,1.71
2018-05-15T10:19:09.373Z,1.86
2018-05-15T10:21:40.395Z,2.08
2018-05-15T10:24:11.462Z,2.00
2018-05-15T10:26:42.499Z,1.99
2018-05-15T10:29:13.556Z,2.62
2018-05-15T10:31:44.590Z,2.76
2018-05-15T10:34:15.574Z,2.69
2018-05-15T10:36:46.567Z,2.62
2018-05-15T10:39:17.621Z,2.49
2018-05-15T10:41:48.640Z,2.15
2018-05-15T10:44:19.652Z,2.42
2018-05-15T10:46:50.686Z,3.35
2018-05-15T10:49:21.658Z,5.17
2018-05-15T10:51:52.704Z,7.56
2018-05-15T10:54:23.695Z,8.63
2018-05-15T10:56:54.901Z,9.08
2018-05-15T10:59:25.780Z,10.20
2018-05-15T11:01:56.796Z,11.18
2018-05-15T11:04:27.806Z,12.28
2018-05-15T11:06:58.790Z,13.08
2018-05-15T11:09:29.832Z,14.11
2018-05-15T11:12:00.962Z,14.17
2018-05-15T11:14:31.952Z,14.10
2018-05-15T11:17:03.039Z,14.42
2018-05-15T11:19:46.464Z,15.39
2018-05-15T11:22:29.780Z,15.02
2018-05-15T11:25:00.776Z,16.02
2018-05-15T11:27:31.780Z,15.94
2018-05-15T11:30:02.832Z,15.47
2018-05-15T11:32:33.850Z,14.58
2018-05-15T11:35:04.859Z,14.91
2018-05-15T11:37:35.854Z,15.09
2018-05-15T11:40:06.897Z,15.58
2018-05-15T11:42:37.922Z,16.56
2018-05-15T11:45:08.918Z,16.67
2018-05-15T11:47:39.946Z,16.56
2018-05-15T11:50:11.452Z,15.80
2018-05-15T11:52:42.289Z,16.75
2018-05-15T11:55:12.890Z,17.62
2018-05-15T11:57:43.851Z,18.04
2018-05-15T12:00:14.895Z,18.98
2018-05-15T12:02:45.959Z,18.94
2018-05-15T12:05:16.856Z,19.50
2018-05-15T12:07:47.861Z,19.60
2018-05-15T12:10:18.895Z,20.46
2018-05-15T12:12:49.908Z,19.98
2018-05-15T12:15:20.942Z,19.31
2018-05-15T12:17:51.914Z,18.60
2018-05-15T12:20:22.977Z,18.03
2018-05-15T12:22:53.910Z,17.66
2018-05-15T12:25:24.922Z,17.60
2018-05-15T12:27:55.929Z,17.25
2018-05-15T12:30:26.949Z,16.70
2018-05-15T12:33:04.966Z,16.44
2018-05-15T12:35:36.075Z,15.92
2018-05-15T12:38:07.104Z,15.72
2018-05-15T12:40:38.099Z,15.34
2018-05-15T12:43:09.089Z,14.60
2018-05-15T12:45:40.095Z,14.61
2018-05-15T12:48:11.093Z,14.73
2018-05-15T12:50:42.141Z,14.31
2018-05-15T12:53:13.108Z,15.03
2018-05-15T12:55:44.135Z,15.95
2018-05-15T12:58:15.107Z,16.39
2018-05-15T13:00:46.155Z,16.79
2018-05-15T13:03:17.151Z,16.34
2018-05-15T13:05:48.155Z,15.56
2018-05-15T13:08:19.175Z,14.54
2018-05-15T13:10:50.177Z,14.60
2018-05-15T13:13:21.157Z,15.70
2018-05-15T13:15:52.121Z,20.04
2018-05-15T13:18:23.212Z,21.99
2018-05-15T13:20:54.176Z,22.50
2018-05-15T13:23:25.181Z,23.11
2018-05-15T13:25:56.160Z,23.28
2018-05-15T13:28:27.150Z,23.25
2018-05-15T13:30:58.172Z,23.07
2018-05-15T13:33:29.210Z,22.17
2018-05-15T13:36:00.180Z,21.46
2018-05-15T13:38:31.365Z,20.85
2018-05-15T13:41:02.414Z,19.88
2018-05-15T13:43:33.415Z,19.38
2018-05-15T13:46:04.437Z,18.68
2018-05-15T13:48:35.417Z,19.12
2018-05-15T13:51:06.413Z,19.43
2018-05-15T13:53:37.416Z,19.65
2018-05-15T13:56:08.469Z,21.51
2018-05-15T13:58:39.507Z,22.16
2018-05-15T14:01:10.523Z,21.98
2018-05-15T14:03:41.521Z,22.11
2018-05-15T14:06:12.520Z,22.70
2018-05-15T14:08:43.526Z,22.66
2018-05-15T14:11:14.504Z,21.41
2018-05-15T14:13:45.615Z,22.12
2018-05-15T14:16:16.566Z,22.64
2018-05-15T14:18:47.572Z,23.04
2018-05-15T14:21:18.547Z,27.13
2018-05-15T14:23:49.589Z,30.19
2018-05-15T14:26:20.589Z,35.00
2018-05-15T14:28:51.591Z,35.74
2018-05-15T14:31:22.614Z,34.43
2018-05-15T14:33:53.607Z,34.28
2018-05-15T14:36:24.588Z,34.49
2018-05-15T14:38:55.594Z,34.57
2018-05-15T14:41:38.726Z,34.86
2018-05-15T14:44:09.774Z,32.29
2018-05-15T14:46:40.738Z,38.13
2018-05-15T14:49:11.759Z,38.03
2018-05-15T14:51:42.766Z,39.36
2018-05-15T14:54:13.806Z,38.26
2018-05-15T14:56:44.821Z,38.20
2018-05-15T14:59:15.832Z,36.20
2018-05-15T15:01:46.848Z,33.49
2018-05-15T15:04:17.874Z,34.78
2018-05-15T15:06:48.883Z,34.87
2018-05-15T15:09:19.872Z,34.12
2018-05-15T15:11:50.898Z,33.86
2018-05-15T15:14:21.928Z,34.60
2018-05-15T15:16:52.902Z,35.07
2018-05-15T15:19:24.035Z,36.83
2018-05-15T15:21:55.037Z,37.60
2018-05-15T15:24:26.287Z,37.64
2018-05-15T15:26:57.027Z,38.86
2018-05-15T15:29:28.054Z,39.64
2018-05-15T15:31:59.062Z,39.64
2018-05-15T15:34:30.066Z,40.13
2018-05-15T15:37:01.042Z,40.62
2018-05-15T15:39:32.054Z,40.95
2018-05-15T15:42:03.023Z,41.72
2018-05-15T15:44:34.084Z,42.03
2018-05-15T15:47:05.091Z,42.19
2018-05-15T15:49:36.126Z,42.79
2018-05-15T15:52:07.107Z,42.67
2018-05-15T15:54:38.141Z,42.54
2018-05-15T15:57:09.139Z,41.91
2018-05-15T15:59:40.233Z,41.79
2018-05-15T16:02:12.411Z,41.79
2018-05-15T16:04:43.431Z,41.66
2018-05-15T16:07:14.495Z,41.54
2018-05-15T16:09:46.410Z,41.70
2018-05-15T16:12:17.403Z,41.71
2018-05-15T16:14:48.396Z,41.04
2018-05-15T16:17:19.402Z,40.87
2018-05-15T16:19:50.409Z,40.18
2018-05-15T16:22:22.091Z,39.67
2018-05-15T16:24:53.144Z,39.22
2018-05-15T16:27:24.158Z,38.80
2018-05-15T16:29:55.193Z,37.88
2018-05-15T16:32:26.279Z,37.29
2018-05-15T16:34:57.308Z,36.73
2018-05-15T16:37:28.301Z,35.70
2018-05-15T16:39:59.320Z,34.66
2018-05-15T16:42:30.346Z,34.00
2018-05-15T16:45:01.350Z,34.11
2018-05-15T16:47:32.371Z,33.50
2018-05-15T16:50:03.459Z,31.48
2018-05-15T16:52:34.471Z,32.90
2018-05-15T16:55:05.480Z,32.47
2018-05-15T16:57:36.494Z,31.93
2018-05-15T17:00:07.516Z,32.21
2018-05-15T17:02:38.527Z,32.62
2018-05-15T17:05:09.639Z,32.65
2018-05-15T17:07:40.679Z,33.28
2018-05-15T17:10:11.750Z,33.63
2018-05-15T17:12:42.786Z,34.06
2018-05-15T17:15:13.833Z,34.91
2018-05-15T17:17:44.845Z,35.21
2018-05-15T17:20:15.862Z,35.76
2018-05-15T17:22:46.832Z,38.46
2018-05-15T17:25:17.868Z,39.49
2018-05-15T17:27:48.891Z,43.45
2018-05-15T17:30:19.902Z,44.89
2018-05-15T17:32:50.873Z,44.14
2018-05-15T17:35:21.878Z,45.83
2018-05-15T17:37:52.906Z,46.97
2018-05-15T17:40:23.926Z,48.44
2018-05-15T17:42:54.944Z,51.72
2018-05-15T17:45:25.999Z,51.67
2018-05-15T17:47:56.974Z,49.02
2018-05-15T17:50:27.950Z,48.92
2018-05-15T17:52:59.013Z,50.08
2018-05-15T17:55:29.987Z,49.28
2018-05-15T17:58:00.955Z,49.49
2018-05-15T18:00:31.938Z,49.95
2018-05-15T18:03:02.907Z,50.35
2018-05-15T18:05:33.908Z,49.30
2018-05-15T18:08:04.886Z,49.87
2018-05-15T18:10:35.854Z,49.99
2018-05-15T18:13:06.865Z,49.90
2018-05-15T18:15:37.917Z,49.87
2018-05-15T18:18:08.912Z,49.41
2018-05-15T18:20:39.932Z,48.75
2018-05-15T18:23:10.964Z,50.73
2018-05-15T18:25:41.918Z,52.68
2018-05-15T18:28:12.934Z,52.82
2018-05-15T18:30:43.972Z,52.96
2018-05-15T18:33:15.042Z,52.60
2018-05-15T18:35:45.998Z,52.30
2018-05-15T18:38:17.022Z,54.26
2018-05-15T18:40:47.999Z,54.01
2018-05-15T18:43:19.018Z,53.60
2018-05-15T18:45:49.993Z,53.51
2018-05-15T18:48:21.044Z,53.96
2018-05-15T18:50:52.129Z,54.52
2018-05-15T18:53:23.076Z,55.11
2018-05-15T18:55:54.083Z,56.44
2018-05-15T18:58:25.292Z,56.68
2018-05-15T19:00:56.324Z,57.42
2018-05-15T19:03:27.317Z,57.69
2018-05-15T19:05:58.321Z,58.30
2018-05-15T19:08:29.334Z,58.38
2018-05-15T19:11:00.324Z,58.97
2018-05-15T19:13:31.331Z,58.72
2018-05-15T19:16:02.346Z,59.50
2018-05-15T19:18:33.355Z,59.18
2018-05-15T19:21:04.360Z,58.04
2018-05-15T19:23:35.389Z,57.29
2018-05-15T19:26:13.218Z,56.92
2018-05-15T19:28:44.228Z,57.02
2018-05-15T19:31:15.251Z,56.80
2018-05-15T19:33:51.155Z,56.68
2018-05-15T19:36:28.355Z,57.12
2018-05-15T19:39:05.336Z,58.41
2018-05-15T19:41:36.401Z,58.80
2018-05-15T19:44:07.387Z,58.52
2018-05-15T19:46:38.391Z,58.84
2018-05-15T19:49:09.381Z,58.73
2018-05-15T19:51:40.376Z,58.24
2018-05-15T19:54:11.370Z,58.04
2018-05-15T19:59:15.925Z,58.15
2018-05-15T20:01:46.980Z,57.90
2018-05-15T20:04:17.946Z,58.63
2018-05-15T20:06:48.963Z,59.12
2018-05-15T20:09:20.012Z,59.86
2018-05-15T20:11:51.013Z,60.18
2018-05-15T20:14:22.052Z,60.28
2018-05-15T20:16:53.059Z,60.83
2018-05-15T20:19:24.108Z,61.03
2018-05-15T20:21:55.099Z,61.27
2018-05-15T20:24:26.118Z,61.45
2018-05-15T20:26:57.134Z,61.83
2018-05-15T20:29:28.202Z,61.83
2018-05-15T20:31:59.172Z,61.91
2018-05-15T20:34:30.273Z,62.26
2018-05-15T20:37:01.245Z,61.99
2018-05-15T20:39:32.274Z,62.06
2018-05-15T20:42:03.377Z,62.19
2018-05-15T20:44:34.292Z,62.35
2018-05-15T20:47:05.285Z,62.22
2018-05-15T20:49:36.328Z,62.60
2018-05-15T20:52:07.394Z,62.68
2018-05-15T20:54:38.351Z,63.13
2018-05-15T20:57:09.342Z,63.23
2018-05-15T20:59:40.311Z,63.11
2018-05-15T21:02:11.312Z,63.38
2018-05-15T21:04:42.324Z,63.39
2018-05-15T21:07:13.329Z,63.27
2018-05-15T21:09:44.286Z,63.29
2018-05-15T21:12:15.300Z,63.35
2018-05-15T21:14:46.292Z,63.40
2018-05-15T21:17:17.266Z,63.39
2018-05-15T21:19:48.260Z,63.46
2018-05-15T21:22:19.284Z,63.05
2018-05-15T21:24:50.226Z,62.87
2018-05-15T21:27:21.246Z,62.64
2018-05-15T21:29:52.227Z,62.53
2018-05-15T21:32:23.234Z,62.44
2018-05-15T21:34:54.222Z,62.29
2018-05-15T21:37:25.231Z,62.21
2018-05-15T21:39:56.216Z,62.01
2018-05-15T21:42:27.210Z,61.66
2018-05-15T21:44:58.195Z,61.31
2018-05-15T21:47:29.224Z,61.04
2018-05-15T21:50:00.279Z,60.70
2018-05-15T21:52:31.240Z,60.19
2018-05-15T21:55:02.285Z,59.84
2018-05-15T21:57:33.268Z,60.09
2018-05-15T22:00:04.270Z,60.13
2018-05-15T22:02:35.233Z,60.23
2018-05-15T22:05:06.258Z,60.11
2018-05-15T22:07:37.266Z,60.14
2018-05-15T22:10:08.282Z,60.39
2018-05-15T22:12:51.577Z,60.42
2018-05-15T22:15:34.842Z,60.52
2018-05-15T22:18:18.229Z,60.72
2018-05-15T22:21:01.676Z,60.77
2018-05-15T22:23:32.447Z,60.66
2018-05-15T22:26:03.465Z,60.33
2018-05-15T22:28:34.455Z,60.00
2018-05-15T22:31:05.693Z,59.87
2018-05-15T22:33:36.661Z,59.93
2018-05-15T22:36:07.671Z,59.95
2018-05-15T22:38:38.633Z,60.05
2018-05-15T22:41:09.638Z,60.12
2018-05-15T22:43:40.651Z,59.91
2018-05-15T22:46:11.689Z,59.72
2018-05-15T22:48:42.698Z,59.44
2018-05-15T22:51:13.716Z,59.26
2018-05-15T22:53:44.714Z,59.27
2018-05-15T22:56:15.693Z,59.34
2018-05-15T22:58:46.694Z,59.56
2018-05-15T23:01:17.714Z,59.72
2018-05-15T23:03:48.741Z,59.85
2018-05-15T23:06:19.787Z,59.84
2018-05-15T23:08:50.739Z,59.83
2018-05-15T23:11:21.749Z,60.17
2018-05-15T23:13:52.763Z,60.37
2018-05-15T23:16:23.721Z,60.45
2018-05-15T23:18:54.732Z,60.47
2018-05-15T23:21:25.751Z,60.58
2018-05-15T23:23:56.813Z,60.55
2018-05-15T23:26:27.799Z,60.72
2018-05-15T23:28:58.825Z,60.78
2018-05-15T23:31:29.810Z,60.84
2018-05-15T23:34:00.816Z,60.88
2018-05-15T23:36:31.774Z,61.02
2018-05-15T23:39:02.817Z,61.15
2018-05-15T23:41:33.780Z,61.22
2018-05-15T23:44:04.771Z,61.39
2018-05-15T23:46:35.730Z,61.41
2018-05-15T23:49:06.751Z,61.34
2018-05-15T23:51:37.704Z,61.46
2018-05-15T23:54:08.733Z,61.67
2018-05-15T23:56:39.718Z,61.70
2018-05-15T23:59:10.738Z,61.85
